Airfield :
LOGIN :

Register | Disclaimer

   EN    FR    IT 

 










Legend :    VFR   Marginal VFR   IFR   Intensive IFR   Very Intensive IFR
Visi :
Ceiling :
>= 8 km
>= 3000ft
5 to 8 km
1000 to 3000 ft
1500m to 5 km
500 to 1000 ft
800 to 1500m
200 to 500 ft
< 800m
< 200 ft
Symbols :   Thunderstorms  Fog  Heavy snow  Heavy precipitations  Wind > 20 kt
SIGMETs :     Misc.  Thunderstorms  Icing  Turbulence  Mountain Waves  Volcanic Ashes







- Airport Elevation : 1487 ft
- IATA code : MUC


EDDM - München Franz Josef Strauss

CURRENT METAR :
  • 251220Z 26018G28KT 9999 VCSH SCT050TCU 08/M03 Q1018 TEMPO 30025G35KT SHGSRA BKN030CB

EXPIRED METARs :
  • 251150Z 28015KT 250V310 9999 VCSH FEW050TCU 08/M03 Q1018 TEMPO 30025G35KT
  • 251120Z 29017KT 9999 VCSH FEW055TCU 08/M03 Q1019 TEMPO 30025G35KT
  • 251050Z 27016G26KT 230V300 9999 VCSH FEW050TCU 09/M03 Q1018 TEMPO 30025G35KT
  • 251020Z 27017KT 250V320 9999 FEW045 08/M03 Q1019 TEMPO 30020G30KT
  • 250950Z 29017KT 260V320 9999 FEW043 07/M04 Q1019 TEMPO 30020G30KT

TAF TAF EDDM
Valid from the 25 at 12:00 until the 26 at 18:00 UTC


251100Z 2512/2618 28015G30KT 9999 SCT035
TEMPO 2512/2518 28020G35KT 4000 SHRAGS BKN020CB
PROB30
TEMPO 2514/2518 29025G40KT 1400 TSGS BKN012CB
BECMG 2518/2521 28008KT
PROB40
TEMPO 2518/2522 2500 SHSNGS BKN015CB
PROB30
TEMPO 2600/2607 BKN011
No reported NOTAMs for that airfield.



MET'MAP, your aeronautical weather chart ! - Copyright ORBIFLY December 2007 - Disclaimer

ORBIFLY MET'MAP TEAM :

Programming & Development : Alexandra Zaïnal
Concept & Development : Baudouin d'Aumeries
Co-Development & Prog : Marc-Olivier Méhu
Technical & hardware support : Manuel Goepfert

Contact : metmap@orbifly.com




SOURCES & CREDITS :

   NOAA